METAR Data
IDs: Format: Raw Decoded Include TAF

Data at: 0526 UTC 19 Aug 2019

KCCA 190515Z AUTO 00000KT 10SM FEW036 23/22 A2999 RMK AO2
KCCA 190455Z AUTO 00000KT 10SM CLR 23/22 A2999 RMK AO2
KCCA 190435Z AUTO 00000KT 10SM CLR 23/23 A2999 RMK AO2
KCCA 190415Z AUTO 00000KT 10SM CLR 23/23 A2999 RMK AO2
KCCA 190355Z AUTO 00000KT 10SM CLR 23/23 A2998 RMK AO2
KCCA 190335Z AUTO 00000KT 10SM CLR 24/23 A2998 RMK AO2
KCCA 190315Z AUTO 00000KT 10SM CLR 24/23 A2997 RMK AO2
KCCA 190255Z AUTO 00000KT 10SM CLR 24/23 A2997 RMK AO2
KCCA 190235Z AUTO 00000KT 10SM CLR 24/24 A2996 RMK AO2
KCCA 190215Z AUTO 00000KT 10SM TS CLR 25/24 A2995 RMK AO2 LTG DSNT NE
KCCA 190155Z AUTO 00000KT 10SM CLR 25/24 A2995 RMK AO2
KCCA 190135Z AUTO 00000KT 10SM CLR 25/24 A2994 RMK AO2
KCCA 190115Z AUTO 00000KT 10SM CLR 26/24 A2993 RMK AO2
KCCA 190055Z AUTO 00000KT 10SM CLR 26/24 A2992 RMK AO2
KCCA 190035Z AUTO 00000KT 10SM CLR 27/24 A2991 RMK AO2
KCCA 190015Z AUTO 00000KT 10SM CLR 29/24 A2989 RMK AO2
KCCA 182355Z AUTO 00000KT 10SM CLR 29/23 A2988 RMK AO2
KCCA 182335Z AUTO 15004KT 10SM CLR 30/23 A2987 RMK AO2
KCCA 182315Z AUTO 11003KT 10SM CLR 30/23 A2987 RMK AO2
KCCA 182255Z AUTO 14004KT 10SM CLR 30/23 A2987 RMK AO2
KCCA 182235Z AUTO 14004KT 8SM CLR 30/24 A2989 RMK AO2
KCCA 182215Z AUTO VRB04KT 10SM CLR 30/23 A2988 RMK AO2
KCCA 182155Z AUTO 00000KT 10SM CLR 30/24 A2987 RMK AO2
KCCA 182135Z AUTO VRB04G10KT 10SM CLR 31/25 A2984 RMK AO2 LTG DSNT SE AND S
KCCA 182115Z AUTO VRB04KT 10SM CLR 30/25 A2985 RMK AO2 LTG DSNT NE AND SW
KCCA 182055Z AUTO 00000KT 10SM CLR 30/24 A2988 RMK AO2
KCCA 182035Z AUTO 00000KT 10SM CLR 30/24 A2990 RMK AO2 LTG DSNT SE AND S
KCCA 182015Z AUTO 00000KT 10SM CLR 29/23 A2991 RMK AO2
KCCA 181955Z AUTO 05003KT 10SM CLR 30/23 A2992 RMK AO2 LTG DSNT NE AND S
KCCA 181935Z AUTO VRB03KT 10SM VCTS CLR 32/25 A2992 RMK AO2 LTG DSNT NE
KCCA 181915Z AUTO VRB05G11KT 10SM CLR 33/25 A2992 RMK AO2 LTG DSNT NE AND S
KCCA 181855Z AUTO 21006KT 10SM VCTS FEW034 FEW040 33/25 A2992 RMK AO2 LTG DSNT NW-NE
KCCA 181835Z AUTO VRB04KT 10SM FEW032 FEW041 33/25 A2992 RMK AO2 LTG DSNT N AND NW
KCCA 181815Z AUTO VRB05G10KT 10SM FEW032 FEW039 33/25 A2992 RMK AO2 LTG DSNT NW
KCCA 181755Z AUTO 22004KT 10SM SCT031 SCT038 33/26 A2993 RMK AO2 LTG DSNT N
KCCA 181735Z AUTO 20005G10KT 10SM SCT030 33/25 A2994 RMK AO2
KCCA 181715Z AUTO 19007KT 10SM SCT029 32/25 A2994 RMK AO2
KCCA 181655Z AUTO 22007KT 10SM FEW026 32/25 A2995 RMK AO2
KCCA 181635Z AUTO VRB04KT 10SM FEW026 31/25 A2996 RMK AO2
KCCA 181615Z AUTO 24006KT 10SM SCT024 SCT029 31/25 A2996 RMK AO2
KCCA 181555Z AUTO 00000KT 10SM CLR 30/25 A2994 RMK AO2
KCCA 181535Z AUTO 14006KT 10SM FEW022 BKN110 29/24 A2993 RMK AO2
KCCA 181515Z AUTO VRB03KT 10SM BKN100 30/24 A2996 RMK AO2
KCCA 181455Z AUTO 14005KT 10SM SCT100 29/24 A2994 RMK AO2
KCCA 181435Z AUTO 10004KT 10SM CLR 28/24 A2994 RMK AO2
KCCA 181415Z AUTO 00000KT 10SM CLR 27/23 A2994 RMK AO2
KCCA 181355Z AUTO 00000KT 10SM CLR 26/23 A2994 RMK AO2
KCCA 181335Z AUTO 00000KT 10SM CLR 25/23 A2994 RMK AO2
KCCA 181315Z AUTO 00000KT 10SM CLR 24/23 A2994 RMK AO2
KCCA 181255Z AUTO 00000KT 10SM CLR 23/22 A2994 RMK AO2
KCCA 181235Z AUTO 00000KT 9SM CLR 22/22 A2993 RMK AO2
KCCA 181215Z AUTO 00000KT 4SM BR CLR 22/21 A2992 RMK AO2
KCCA 181155Z AUTO 00000KT 2SM BR CLR 21/21 A2993 RMK AO2
KCCA 181135Z AUTO 00000KT 9SM CLR 22/21 A2992 RMK AO2
KCCA 181115Z AUTO 00000KT 8SM CLR 21/21 A2992 RMK AO2
KCCA 181055Z AUTO 00000KT 10SM BKN041 22/21 A2991 RMK AO2
KCCA 181035Z AUTO 00000KT 10SM OVC041 22/21 A2990 RMK AO2
KCCA 181015Z AUTO 00000KT 2 1/2SM BR BKN043 22/21 A2990 RMK AO2 VIS 1 3/4V5
KCCA 180955Z AUTO 00000KT 5SM BR BKN044 22/21 A2989 RMK AO2
KCCA 180935Z AUTO 00000KT 9SM SCT048 22/22 A2990 RMK AO2
KCCA 180915Z AUTO 00000KT 9SM SCT047 BKN055 22/22 A2990 RMK AO2
KCCA 180855Z AUTO 00000KT 4SM BR CLR 22/22 A2990 RMK AO2
KCCA 180835Z AUTO 00000KT 9SM CLR 22/22 A2990 RMK AO2
KCCA 180815Z AUTO 00000KT 9SM CLR 22/22 A2990 RMK AO2
KCCA 180755Z AUTO 00000KT 8SM FEW050 22/22 A2990 RMK AO2
KCCA 180735Z AUTO 00000KT 10SM CLR 23/22 A2990 RMK AO2
KCCA 180715Z AUTO 00000KT 10SM CLR 23/22 A2990 RMK AO2
KCCA 180655Z AUTO 00000KT 9SM CLR 23/22 A2991 RMK AO2
KCCA 180635Z AUTO 00000KT 10SM CLR 23/22 A2991 RMK AO2
KCCA 180615Z AUTO 00000KT 10SM CLR 23/22 A2991 RMK AO2
KCCA 180555Z AUTO 00000KT 10SM CLR 23/22 A2991 RMK AO2
KCCA 180535Z AUTO 00000KT 10SM CLR 23/23 A2992 RMK AO2
KCCA 180515Z AUTO 00000KT 9SM CLR 23/23 A2992 RMK AO2
KCCA 180455Z AUTO 00000KT 10SM CLR 24/23 A2992 RMK AO2
KCCA 180435Z AUTO 00000KT 10SM CLR 24/23 A2991 RMK AO2
KCCA 180415Z AUTO 00000KT 10SM CLR 24/23 A2991 RMK AO2
KCCA 180355Z AUTO 00000KT 10SM CLR 25/23 A2992 RMK AO2
KCCA 180335Z AUTO 00000KT 10SM CLR 25/23 A2991 RMK AO2
KCCA 180315Z AUTO 00000KT 10SM CLR 25/24 A2991 RMK AO2
KCCA 180255Z AUTO 00000KT 10SM CLR 26/24 A2990 RMK AO2
KCCA 180235Z AUTO 00000KT 10SM CLR 27/24 A2990 RMK AO2
KCCA 180215Z AUTO 00000KT 10SM CLR 28/24 A2989 RMK AO2
KCCA 180155Z AUTO 00000KT 10SM CLR 28/24 A2989 RMK AO2
KCCA 180135Z AUTO 00000KT 10SM CLR 28/23 A2988 RMK AO2
KCCA 180115Z AUTO 00000KT 10SM CLR 29/23 A2988 RMK AO2
KCCA 180055Z AUTO 00000KT 10SM CLR 29/23 A2988 RMK AO2
KCCA 180035Z AUTO 13004KT 10SM CLR 30/23 A2988 RMK AO2
KCCA 180015Z AUTO VRB03KT 10SM CLR 31/23 A2987 RMK AO2
KCCA 172355Z AUTO VRB04KT 10SM CLR 32/24 A2988 RMK AO2
KCCA 172335Z AUTO 12005KT 10SM CLR 32/24 A2988 RMK AO2
KCCA 172315Z AUTO VRB05G10KT 10SM FEW050 32/23 A2988 RMK AO2
KCCA 172255Z AUTO 11004KT 10SM CLR 33/23 A2988 RMK AO2
KCCA 172235Z AUTO 15005G11KT 10SM FEW050 33/23 A2988 RMK AO2
KCCA 172215Z AUTO VRB05KT 10SM FEW055 FEW065 34/22 A2988 RMK AO2
KCCA 172155Z AUTO 14005KT 10SM FEW070 34/23 A2988 RMK AO2
KCCA 172135Z AUTO 12005KT 10SM FEW050 FEW065 33/22 A2988 RMK AO2
KCCA 172115Z AUTO 12007KT 10SM FEW050 FEW060 34/22 A2989 RMK AO2
KCCA 172055Z AUTO 17005KT 10SM CLR 34/22 A2989 RMK AO2
KCCA 172035Z AUTO VRB04KT 10SM CLR 34/22 A2990 RMK AO2
KCCA 172015Z AUTO VRB04KT 10SM FEW050 34/23 A2990 RMK AO2
KCCA 171955Z AUTO VRB03KT 10SM CLR 34/22 A2991 RMK AO2
KCCA 171935Z AUTO 00000KT 10SM CLR 34/22 A2992 RMK AO2
KCCA 171915Z AUTO 19004KT 9SM CLR 34/21 A2992 RMK AO2
KCCA 171855Z AUTO 14007KT 10SM FEW047 33/23 A2992 RMK AO2
KCCA 171835Z AUTO 00000KT 10SM CLR 33/22 A2993 RMK AO2
KCCA 171815Z AUTO 14005KT 10SM FEW045 33/23 A2994 RMK AO2
KCCA 171755Z AUTO 18005G11KT 10SM FEW045 33/23 A2996 RMK AO2
KCCA 171735Z AUTO 26005KT 10SM CLR 33/23 A2997 RMK AO2